createdAt,value
2019-02-06T00:01:00.185Z,28.73
2019-02-06T00:03:28.547Z,29.97
2019-02-06T00:05:56.903Z,27.73
2019-02-06T00:08:25.315Z,26.93
2019-02-06T00:10:53.667Z,27.70
2019-02-06T00:13:22.084Z,29.50
2019-02-06T00:15:50.999Z,27.67
2019-02-06T00:18:19.447Z,26.07
2019-02-06T00:20:47.793Z,28.30
2019-02-06T00:23:16.173Z,25.63
2019-02-06T00:25:44.553Z,24.53
2019-02-06T00:28:12.959Z,27.67
2019-02-06T00:30:41.383Z,28.80
2019-02-06T00:33:10.072Z,26.47
2019-02-06T00:35:38.447Z,24.73
2019-02-06T00:38:06.792Z,22.53
2019-02-06T00:40:35.189Z,26.43
2019-02-06T00:43:03.541Z,24.67
2019-02-06T00:45:31.925Z,26.77
2019-02-06T00:48:00.699Z,26.93
2019-02-06T00:50:29.137Z,22.93
2019-02-06T00:52:57.504Z,20.53
2019-02-06T00:55:25.881Z,23.77
2019-02-06T00:57:54.265Z,21.80
2019-02-06T01:00:23.186Z,23.77
2019-02-06T01:02:52.484Z,22.80
2019-02-06T01:05:21.033Z,20.53
2019-02-06T01:07:49.445Z,21.57
2019-02-06T01:10:20.738Z,21.93
2019-02-06T01:12:49.117Z,28.47
2019-02-06T01:15:18.506Z,25.43
2019-02-06T01:17:46.877Z,22.60
2019-02-06T01:20:17.075Z,22.70
2019-02-06T01:22:45.465Z,21.90
2019-02-06T01:25:16.786Z,23.17
2019-02-06T01:27:45.279Z,23.63
2019-02-06T01:30:20.925Z,22.13
2019-02-06T01:32:49.295Z,22.47
2019-02-06T01:35:17.987Z,22.77
2019-02-06T01:37:46.383Z,23.03
2019-02-06T01:40:17.397Z,24.67
2019-02-06T01:42:45.807Z,23.50
2019-02-06T01:45:17.072Z,26.63
2019-02-06T01:47:45.551Z,24.00
2019-02-06T01:50:15.408Z,26.80
2019-02-06T01:52:43.775Z,31.73
2019-02-06T01:55:15.359Z,26.30
2019-02-06T01:57:43.719Z,23.80
2019-02-06T02:00:18.045Z,26.67
2019-02-06T02:02:46.435Z,25.97
2019-02-06T02:05:17.243Z,25.37
2019-02-06T02:07:45.645Z,32.07
2019-02-06T02:10:14.015Z,29.80
2019-02-06T02:12:42.377Z,30.33
2019-02-06T02:15:13.806Z,28.47
2019-02-06T02:17:42.170Z,27.30
2019-02-06T02:20:15.865Z,33.80
2019-02-06T02:22:44.223Z,30.20
2019-02-06T02:25:12.790Z,26.10
2019-02-06T02:27:41.154Z,34.50
2019-02-06T02:30:18.850Z,33.27
2019-02-06T02:32:47.532Z,29.83
2019-02-06T02:35:15.886Z,33.17
2019-02-06T02:37:44.342Z,30.53
2019-02-06T02:40:12.697Z,32.87
2019-02-06T02:42:41.079Z,37.73
2019-02-06T02:45:14.810Z,32.47
2019-02-06T02:47:43.509Z,33.63
2019-02-06T02:50:12.012Z,35.23
2019-02-06T02:52:40.391Z,30.40
2019-02-06T02:55:10.784Z,38.57
2019-02-06T02:57:39.193Z,34.33
2019-02-06T03:00:12.683Z,38.83
2019-02-06T03:02:52.475Z,33.53
2019-02-06T03:05:22.009Z,36.97
2019-02-06T03:07:50.337Z,40.27
2019-02-06T03:10:18.696Z,38.10
2019-02-06T03:12:47.096Z,35.47
2019-02-06T03:15:15.457Z,39.90
2019-02-06T03:17:43.836Z,36.13
2019-02-06T03:20:13.057Z,29.37
2019-02-06T03:22:41.436Z,34.43
2019-02-06T03:25:14.287Z,34.10
2019-02-06T03:27:42.687Z,33.43
2019-02-06T03:30:16.301Z,37.93
2019-02-06T03:32:44.725Z,30.63
2019-02-06T03:35:13.257Z,36.90
2019-02-06T03:37:41.641Z,31.87
2019-02-06T03:40:15.093Z,35.90
2019-02-06T03:42:43.468Z,28.33
2019-02-06T03:45:12.882Z,37.07
2019-02-06T03:47:41.249Z,30.37
2019-02-06T03:50:20.249Z,32.57
2019-02-06T03:52:48.634Z,34.43
2019-02-06T03:55:17.012Z,32.23
2019-02-06T03:57:45.372Z,38.20
2019-02-06T04:00:18.320Z,33.00
2019-02-06T04:02:46.685Z,35.87
2019-02-06T04:05:15.153Z,33.30
2019-02-06T04:07:43.522Z,39.67
2019-02-06T04:10:19.029Z,35.60
2019-02-06T04:12:47.523Z,35.47
2019-02-06T04:15:16.732Z,38.67
2019-02-06T04:17:45.093Z,41.30
2019-02-06T04:20:17.231Z,37.50
2019-02-06T04:22:45.612Z,32.87
2019-02-06T04:25:16.946Z,38.37
2019-02-06T04:27:45.334Z,33.03
2019-02-06T04:30:18.452Z,36.73
2019-02-06T04:32:46.899Z,34.50
2019-02-06T04:35:15.716Z,39.20
2019-02-06T04:37:44.105Z,33.37
2019-02-06T04:40:16.102Z,35.43
2019-02-06T04:42:44.479Z,37.00
2019-02-06T04:45:17.720Z,33.87
2019-02-06T04:47:46.085Z,35.37
2019-02-06T04:50:15.486Z,36.07
2019-02-06T04:52:43.964Z,34.90
2019-02-06T04:55:14.677Z,35.70
2019-02-06T04:57:43.070Z,35.07
2019-02-06T05:00:25.712Z,40.03
2019-02-06T05:02:54.082Z,39.30
2019-02-06T05:05:22.456Z,33.40
2019-02-06T05:07:50.821Z,38.40
2019-02-06T05:10:19.236Z,38.03
2019-02-06T05:12:47.890Z,42.40
2019-02-06T05:15:16.924Z,36.47
2019-02-06T05:17:45.342Z,34.87
2019-02-06T05:20:35.409Z,34.90
2019-02-06T05:23:03.870Z,36.17
2019-02-06T05:25:32.237Z,35.90
2019-02-06T05:28:00.540Z,31.37
2019-02-06T05:30:28.928Z,29.67
2019-02-06T05:32:57.312Z,37.43
2019-02-06T05:35:25.822Z,34.83
2019-02-06T05:37:54.184Z,38.43
2019-02-06T05:40:22.991Z,33.87
2019-02-06T05:42:52.781Z,36.63
2019-02-06T05:45:21.372Z,34.57
2019-02-06T05:47:49.747Z,33.63
2019-02-06T05:50:19.763Z,35.80
2019-02-06T05:52:48.164Z,33.03
2019-02-06T05:55:17.509Z,39.10
2019-02-06T05:57:46.171Z,38.40
2019-02-06T06:00:24.877Z,37.07
2019-02-06T06:02:53.272Z,34.87
2019-02-06T06:05:21.649Z,37.23
2019-02-06T06:07:50.027Z,40.70
2019-02-06T06:10:19.249Z,36.50
2019-02-06T06:12:47.963Z,33.57
2019-02-06T06:15:18.841Z,44.77
2019-02-06T06:17:47.317Z,35.53
2019-02-06T06:20:17.842Z,36.13
2019-02-06T06:22:46.243Z,36.60
2019-02-06T06:25:17.470Z,41.80
2019-02-06T06:27:46.169Z,33.53
2019-02-06T06:30:16.666Z,37.17
2019-02-06T06:32:45.075Z,37.60
2019-02-06T06:35:14.114Z,40.27
2019-02-06T06:37:42.482Z,35.77
2019-02-06T06:40:20.226Z,42.50
2019-02-06T06:42:48.813Z,44.27
2019-02-06T06:45:23.380Z,46.40
2019-02-06T06:47:51.755Z,40.10
2019-02-06T06:50:22.063Z,38.43
2019-02-06T06:52:50.439Z,37.30
2019-02-06T06:55:18.835Z,40.90
2019-02-06T06:57:47.217Z,42.17
2019-02-06T07:00:21.737Z,35.57
2019-02-06T07:02:50.094Z,41.13
2019-02-06T07:05:18.430Z,45.07
2019-02-06T07:07:46.811Z,33.80
2019-02-06T07:10:16.531Z,39.57
2019-02-06T07:12:44.906Z,37.37
2019-02-06T07:15:15.837Z,34.67
2019-02-06T07:17:44.213Z,35.37
2019-02-06T07:20:15.027Z,36.40
2019-02-06T07:22:43.453Z,41.07
2019-02-06T07:25:14.111Z,43.60
2019-02-06T07:27:42.479Z,42.10
2019-02-06T07:30:19.861Z,43.00
2019-02-06T07:32:48.251Z,45.67
2019-02-06T07:35:16.676Z,38.87
2019-02-06T07:37:45.094Z,50.43
2019-02-06T07:40:15.127Z,43.13
2019-02-06T07:42:43.519Z,41.80
2019-02-06T07:45:13.976Z,45.63
2019-02-06T07:47:42.377Z,50.83
2019-02-06T07:50:16.433Z,44.93
2019-02-06T07:52:44.796Z,43.13
2019-02-06T07:55:13.479Z,43.63
2019-02-06T07:57:41.844Z,42.73
2019-02-06T08:00:10.221Z,33.60
2019-02-06T08:02:38.601Z,36.63
2019-02-06T08:05:17.953Z,27.63
2019-02-06T08:07:46.355Z,22.10
2019-02-06T08:10:18.242Z,19.53
2019-02-06T08:12:46.633Z,22.90
2019-02-06T08:15:17.192Z,22.67
2019-02-06T08:17:45.543Z,23.20
2019-02-06T08:20:21.367Z,22.20
2019-02-06T08:22:49.726Z,28.40
2019-02-06T08:25:19.556Z,20.63
2019-02-06T08:27:48.009Z,26.93
2019-02-06T08:30:28.700Z,22.97
2019-02-06T08:32:57.085Z,22.37
2019-02-06T08:35:25.463Z,23.47
2019-02-06T08:37:53.868Z,26.67
2019-02-06T08:40:27.489Z,20.80
2019-02-06T08:42:55.887Z,25.63
2019-02-06T08:45:24.266Z,21.00
2019-02-06T08:47:52.648Z,24.40
2019-02-06T08:50:22.162Z,25.87
2019-02-06T08:52:50.942Z,21.27
2019-02-06T08:55:25.358Z,21.60
2019-02-06T08:57:53.775Z,20.87
2019-02-06T09:00:27.102Z,23.63
2019-02-06T09:02:55.496Z,24.60
2019-02-06T09:05:23.886Z,24.83
2019-02-06T09:07:55.050Z,21.83
2019-02-06T09:10:25.404Z,25.70
2019-02-06T09:12:54.522Z,23.50
2019-02-06T09:15:22.814Z,23.23
2019-02-06T09:17:51.180Z,21.97
2019-02-06T09:20:25.234Z,27.27
2019-02-06T09:22:53.674Z,21.23
2019-02-06T09:25:23.815Z,28.80
2019-02-06T09:27:52.314Z,28.07
2019-02-06T09:30:25.791Z,32.40
2019-02-06T09:32:54.804Z,28.13
2019-02-06T09:35:23.516Z,25.90
2019-02-06T09:37:51.921Z,29.80
2019-02-06T09:40:22.845Z,25.17
2019-02-06T09:42:51.288Z,31.77
2019-02-06T09:45:19.687Z,21.23
2019-02-06T09:47:48.121Z,30.90
2019-02-06T09:50:19.530Z,27.87
2019-02-06T09:52:47.906Z,28.43
2019-02-06T09:55:16.270Z,28.33
2019-02-06T09:57:44.654Z,23.93
2019-02-06T10:00:16.302Z,24.80
2019-02-06T10:02:44.701Z,27.37
2019-02-06T10:05:13.078Z,25.20
2019-02-06T10:07:41.753Z,27.37
2019-02-06T10:10:15.573Z,25.10
2019-02-06T10:12:43.977Z,24.57
2019-02-06T10:15:23.965Z,23.97
2019-02-06T10:17:53.191Z,26.77
2019-02-06T10:20:27.200Z,26.20
2019-02-06T10:22:55.573Z,28.43
2019-02-06T10:25:24.034Z,32.23
2019-02-06T10:27:52.404Z,28.63
2019-02-06T10:30:35.376Z,25.47
2019-02-06T10:33:03.786Z,27.07
2019-02-06T10:35:32.153Z,24.17
2019-02-06T10:38:00.539Z,25.60
2019-02-06T10:40:28.928Z,24.70
2019-02-06T10:42:57.301Z,25.57
2019-02-06T10:45:25.677Z,24.53
2019-02-06T10:47:54.463Z,22.27
2019-02-06T10:50:25.211Z,21.67
2019-02-06T10:52:53.583Z,24.83
2019-02-06T10:55:22.007Z,23.10
2019-02-06T10:57:50.452Z,21.67
2019-02-06T11:00:29.832Z,25.27
2019-02-06T11:02:57.778Z,21.70
2019-02-06T11:05:26.181Z,22.80
2019-02-06T11:07:54.571Z,22.57
2019-02-06T11:10:27.373Z,23.27
2019-02-06T11:12:55.751Z,29.47
2019-02-06T11:15:24.117Z,24.10
2019-02-06T11:17:52.875Z,24.80
2019-02-06T11:20:24.145Z,21.23
2019-02-06T11:22:52.539Z,28.50
2019-02-06T11:25:20.935Z,21.83
2019-02-06T11:27:49.320Z,23.17
2019-02-06T11:30:20.597Z,19.97
2019-02-06T11:32:49.279Z,21.47
2019-02-06T11:35:17.659Z,23.50
2019-02-06T11:37:46.052Z,21.80
2019-02-06T11:40:16.776Z,22.47
2019-02-06T11:42:45.148Z,25.87
2019-02-06T11:45:25.235Z,26.07
2019-02-06T11:47:53.638Z,22.60
2019-02-06T11:50:29.994Z,20.13
2019-02-06T11:52:58.433Z,18.57
2019-02-06T11:55:29.133Z,24.30
2019-02-06T11:57:57.520Z,19.73
2019-02-06T12:00:34.184Z,20.40
2019-02-06T12:03:02.569Z,20.33
2019-02-06T12:05:30.952Z,19.53
2019-02-06T12:08:00.972Z,19.40
2019-02-06T12:10:29.351Z,20.00
2019-02-06T12:12:57.722Z,17.87
2019-02-06T12:15:26.432Z,21.50
2019-02-06T12:17:54.800Z,21.17
2019-02-06T12:20:24.434Z,22.43
2019-02-06T12:22:52.794Z,20.97
2019-02-06T12:25:21.204Z,19.63
2019-02-06T12:27:51.521Z,21.53
2019-02-06T12:30:26.179Z,26.10
2019-02-06T12:32:54.532Z,25.53
2019-02-06T12:35:22.904Z,20.43
2019-02-06T12:37:51.290Z,21.13
2019-02-06T12:40:21.865Z,21.53
2019-02-06T12:42:50.216Z,21.97
2019-02-06T12:45:23.760Z,22.30
2019-02-06T12:47:52.597Z,25.00
2019-02-06T12:50:24.787Z,24.57
2019-02-06T12:52:53.182Z,21.07
2019-02-06T12:55:39.013Z,25.13
2019-02-06T12:58:08.352Z,21.70
2019-02-06T13:00:44.101Z,22.67
2019-02-06T13:03:12.510Z,16.77
2019-02-06T13:05:40.867Z,22.13
2019-02-06T13:08:09.292Z,20.93
2019-02-06T13:10:37.649Z,23.20
2019-02-06T13:13:06.309Z,20.23
2019-02-06T13:15:34.989Z,20.80
2019-02-06T13:18:03.392Z,17.47
2019-02-06T13:20:36.311Z,19.90
2019-02-06T13:23:05.882Z,20.03
2019-02-06T13:25:34.251Z,18.80
2019-02-06T13:28:02.641Z,16.43
2019-02-06T13:30:36.400Z,22.63
2019-02-06T13:33:06.403Z,22.93
2019-02-06T13:35:34.797Z,20.97
2019-02-06T13:38:03.160Z,20.63
2019-02-06T13:40:31.567Z,19.30
2019-02-06T13:42:59.926Z,18.13
2019-02-06T13:45:34.770Z,18.83
2019-02-06T13:48:03.131Z,21.50
2019-02-06T13:50:31.537Z,22.47
2019-02-06T13:52:59.926Z,23.47
2019-02-06T13:55:28.302Z,21.53
2019-02-06T13:57:56.612Z,20.87
2019-02-06T14:00:33.069Z,20.47
2019-02-06T14:03:01.506Z,19.37
2019-02-06T14:05:31.828Z,20.13
2019-02-06T14:08:02.887Z,22.20
2019-02-06T14:10:32.110Z,20.50
2019-02-06T14:13:00.958Z,20.53
2019-02-06T14:15:32.650Z,22.63
2019-02-06T14:18:01.031Z,22.10
2019-02-06T14:20:30.012Z,19.43
2019-02-06T14:23:01.574Z,17.63
2019-02-06T14:25:45.405Z,20.57
2019-02-06T14:28:25.817Z,19.33
2019-02-06T14:31:14.186Z,23.13
2019-02-06T14:33:54.897Z,21.50
2019-02-06T14:36:45.492Z,19.53
2019-02-06T14:39:29.171Z,19.03
2019-02-06T14:42:19.994Z,20.63
2019-02-06T14:45:06.444Z,20.10
2019-02-06T14:47:55.960Z,20.30
2019-02-06T14:51:00.419Z,21.03
2019-02-06T14:53:54.329Z,24.30
2019-02-06T14:56:34.841Z,20.63
2019-02-06T14:59:12.328Z,21.33
2019-02-06T15:01:58.530Z,24.67
2019-02-06T15:04:38.983Z,26.50
2019-02-06T15:07:28.383Z,24.37
2019-02-06T15:10:11.706Z,24.63
2019-02-06T15:12:55.274Z,30.87
2019-02-06T15:15:43.456Z,23.60
2019-02-06T15:18:15.082Z,25.03
2019-02-06T15:20:55.910Z,25.33
2019-02-06T15:23:48.689Z,23.33
2019-02-06T15:26:20.363Z,25.30
2019-02-06T15:29:03.486Z,20.70
2019-02-06T15:32:06.906Z,22.53
2019-02-06T15:34:52.863Z,26.47
2019-02-06T15:37:32.709Z,25.07
2019-02-06T15:40:27.023Z,28.10
2019-02-06T15:43:16.513Z,24.90
2019-02-06T15:45:48.118Z,25.70
2019-02-06T15:48:34.531Z,23.73
2019-02-06T15:51:32.058Z,24.27
2019-02-06T15:54:06.515Z,25.67
2019-02-06T15:56:54.858Z,27.63
2019-02-06T15:59:48.981Z,24.40
2019-02-06T16:02:26.399Z,27.80
2019-02-06T16:05:08.340Z,29.33
2019-02-06T16:07:51.885Z,28.47
2019-02-06T16:10:50.528Z,27.13
2019-02-06T16:13:46.291Z,26.13
2019-02-06T16:16:38.177Z,27.33
2019-02-06T16:19:28.100Z,26.70
2019-02-06T16:22:23.665Z,27.00
2019-02-06T16:25:01.008Z,27.27
2019-02-06T16:27:44.678Z,26.93
2019-02-06T16:30:30.586Z,26.97
2019-02-06T16:33:14.307Z,24.03
2019-02-06T16:35:51.280Z,27.13
2019-02-06T16:38:41.213Z,28.67
2019-02-06T16:41:24.696Z,25.77
2019-02-06T16:43:56.325Z,26.00
2019-02-06T16:46:36.563Z,23.63
2019-02-06T16:49:14.487Z,21.27
2019-02-06T16:52:05.294Z,24.40
2019-02-06T16:54:45.626Z,31.47
2019-02-06T16:57:17.266Z,24.80
2019-02-06T16:59:57.611Z,27.27
2019-02-06T17:02:35.106Z,26.60
2019-02-06T17:05:30.916Z,28.57
2019-02-06T17:08:14.490Z,26.33
2019-02-06T17:11:05.439Z,28.63
2019-02-06T17:13:39.607Z,27.53
2019-02-06T17:16:23.203Z,27.90
2019-02-06T17:18:57.387Z,29.20
2019-02-06T17:21:31.488Z,26.90
2019-02-06T17:24:14.615Z,26.50
2019-02-06T17:26:51.552Z,23.57
2019-02-06T17:29:23.215Z,25.17
2019-02-06T17:32:06.596Z,24.17
2019-02-06T17:34:38.252Z,30.40
2019-02-06T17:37:21.191Z,25.77
2019-02-06T17:39:55.555Z,21.57
2019-02-06T17:42:29.803Z,23.97
2019-02-06T17:45:19.216Z,27.47
2019-02-06T17:47:56.095Z,30.07
2019-02-06T17:50:44.228Z,27.47
2019-02-06T17:53:15.859Z,27.20
2019-02-06T17:55:44.262Z,26.53
2019-02-06T17:58:12.638Z,21.33
2019-02-06T18:00:52.994Z,26.23
2019-02-06T18:03:21.411Z,23.20
2019-02-06T18:05:50.258Z,25.50
2019-02-06T18:08:18.678Z,25.07
2019-02-06T18:10:47.073Z,27.73
2019-02-06T18:13:15.936Z,23.63
2019-02-06T18:15:44.324Z,28.12
2019-02-06T18:18:12.713Z,25.27
2019-02-06T18:20:41.410Z,27.50
2019-02-06T18:23:09.794Z,31.57
2019-02-06T18:25:38.177Z,25.00
2019-02-06T18:28:06.588Z,25.67
2019-02-06T18:30:34.952Z,24.53
2019-02-06T18:33:03.354Z,23.07
2019-02-06T18:35:31.751Z,21.33
2019-02-06T18:38:00.151Z,22.37
2019-02-06T18:40:28.826Z,21.63
2019-02-06T18:42:57.448Z,23.17
2019-02-06T18:45:27.828Z,23.27
2019-02-06T18:48:01.642Z,21.07
2019-02-06T18:50:34.376Z,18.13
2019-02-06T18:53:03.155Z,21.00
2019-02-06T18:55:31.968Z,20.13
2019-02-06T18:58:00.338Z,18.90
2019-02-06T19:00:32.403Z,17.73
2019-02-06T19:03:03.829Z,21.10
2019-02-06T19:05:35.327Z,19.20
2019-02-06T19:08:03.701Z,19.23
2019-02-06T19:10:32.085Z,22.47
2019-02-06T19:13:00.482Z,23.40
2019-02-06T19:15:29.165Z,21.57
2019-02-06T19:17:57.604Z,18.80
2019-02-06T19:20:26.010Z,20.35
2019-02-06T19:22:54.407Z,17.47
2019-02-06T19:25:23.965Z,20.70
2019-02-06T19:27:52.374Z,19.17
2019-02-06T19:30:26.011Z,21.00
2019-02-06T19:32:54.604Z,22.23
2019-02-06T19:35:23.053Z,17.82
2019-02-06T19:37:51.462Z,19.90
2019-02-06T19:40:20.036Z,21.77
2019-02-06T19:42:58.809Z,22.90
2019-02-06T19:45:21.557Z,21.73
2019-02-06T19:47:49.968Z,23.43
2019-02-06T19:50:27.306Z,19.47
2019-02-06T19:52:55.701Z,24.27
2019-02-06T19:55:24.089Z,25.97
2019-02-06T19:57:52.496Z,18.70
2019-02-06T20:00:26.133Z,23.60
2019-02-06T20:02:54.618Z,25.33
2019-02-06T20:05:23.301Z,21.87
2019-02-06T20:07:51.855Z,22.00
2019-02-06T20:10:23.504Z,21.87
2019-02-06T20:12:51.939Z,24.87
2019-02-06T20:15:20.825Z,25.03
2019-02-06T20:17:49.199Z,27.93
2019-02-06T20:20:20.401Z,20.97
2019-02-06T20:22:49.103Z,22.90
2019-02-06T20:25:17.520Z,26.87
2019-02-06T20:27:45.986Z,22.67
2019-02-06T20:30:20.166Z,22.27
2019-02-06T20:32:48.580Z,23.93
2019-02-06T20:35:17.197Z,26.77
2019-02-06T20:37:45.668Z,19.10
2019-02-06T20:40:26.708Z,23.10
2019-02-06T20:42:55.130Z,23.63
2019-02-06T20:45:23.489Z,23.20
2019-02-06T20:47:51.892Z,22.87
2019-02-06T20:50:28.100Z,24.33
2019-02-06T20:52:56.797Z,23.10
2019-02-06T20:55:25.243Z,21.07
2019-02-06T20:57:53.670Z,20.32
2019-02-06T21:00:24.865Z,23.53
2019-02-06T21:02:53.266Z,21.53
2019-02-06T21:05:21.707Z,20.07
2019-02-06T21:07:50.107Z,20.72
2019-02-06T21:10:23.578Z,20.05
2019-02-06T21:13:12.873Z,19.62
2019-02-06T21:15:41.264Z,25.47
2019-02-06T21:18:09.670Z,19.70
2019-02-06T21:20:38.068Z,23.77
2019-02-06T21:23:06.461Z,19.50
2019-02-06T21:25:34.854Z,20.07
2019-02-06T21:28:03.280Z,19.40
2019-02-06T21:30:39.934Z,21.27
2019-02-06T21:33:08.317Z,19.67
2019-02-06T21:35:36.785Z,21.43
2019-02-06T21:38:05.164Z,21.90
2019-02-06T21:40:37.348Z,20.70
2019-02-06T21:43:06.762Z,17.97
2019-02-06T21:45:35.227Z,19.10
2019-02-06T21:48:04.003Z,22.85
2019-02-06T21:50:32.378Z,33.63
2019-02-06T21:53:00.808Z,24.20
2019-02-06T21:55:29.316Z,15.93
2019-02-06T21:57:57.797Z,17.50
2019-02-06T22:00:35.270Z,19.57
2019-02-06T22:03:03.644Z,23.73
2019-02-06T22:05:32.550Z,23.80
2019-02-06T22:08:00.964Z,22.03
2019-02-06T22:10:29.337Z,18.57
2019-02-06T22:12:57.754Z,17.25
2019-02-06T22:15:28.374Z,21.53
2019-02-06T22:17:56.764Z,23.07
2019-02-06T22:20:25.756Z,19.35
2019-02-06T22:22:54.193Z,27.65
2019-02-06T22:25:22.571Z,21.43
2019-02-06T22:27:52.952Z,19.48
2019-02-06T22:30:27.118Z,23.02
2019-02-06T22:32:55.503Z,21.35
2019-02-06T22:35:24.283Z,20.93
2019-02-06T22:37:52.712Z,19.35
2019-02-06T22:40:23.593Z,18.87
2019-02-06T22:42:52.039Z,18.62
2019-02-06T22:45:28.178Z,22.13
2019-02-06T22:47:56.647Z,19.17
2019-02-06T22:50:27.740Z,22.95
2019-02-06T22:52:56.106Z,21.80
2019-02-06T22:55:24.557Z,24.40
2019-02-06T22:57:52.961Z,18.70
2019-02-06T23:00:44.488Z,21.35
2019-02-06T23:03:13.027Z,20.30
2019-02-06T23:05:41.466Z,19.63
2019-02-06T23:08:09.988Z,19.87
2019-02-06T23:10:38.349Z,21.30
2019-02-06T23:13:07.614Z,21.97
2019-02-06T23:15:36.580Z,21.85
2019-02-06T23:18:05.402Z,19.65
2019-02-06T23:20:33.778Z,22.50
2019-02-06T23:23:02.178Z,27.10
2019-02-06T23:25:30.588Z,21.97
2019-02-06T23:27:58.984Z,22.87
2019-02-06T23:30:27.697Z,21.00
2019-02-06T23:32:56.095Z,18.35
2019-02-06T23:35:24.478Z,22.75
2019-02-06T23:37:52.936Z,21.15
2019-02-06T23:40:21.277Z,19.92
2019-02-06T23:42:49.668Z,22.98
2019-02-06T23:45:18.065Z,20.37
2019-02-06T23:47:46.437Z,22.55
2019-02-06T23:50:17.854Z,24.27
2019-02-06T23:52:46.246Z,24.07
2019-02-06T23:55:14.649Z,20.60
2019-02-06T23:57:43.114Z,19.48
